sensor_id;sensor_type;location;lat;lon;timestamp;temperature;humidity
12901;DHT22;6518;50.930;5.344;2022-08-11T00:01:44;24.90;46.60
12901;DHT22;6518;50.930;5.344;2022-08-11T00:04:13;24.80;46.60
12901;DHT22;6518;50.930;5.344;2022-08-11T00:06:40;24.70;46.70
12901;DHT22;6518;50.930;5.344;2022-08-11T00:09:11;24.70;46.80
12901;DHT22;6518;50.930;5.344;2022-08-11T00:11:42;24.70;46.90
12901;DHT22;6518;50.930;5.344;2022-08-11T00:14:15;24.60;46.90
12901;DHT22;6518;50.930;5.344;2022-08-11T00:16:44;24.60;47.00
12901;DHT22;6518;50.930;5.344;2022-08-11T00:19:21;24.60;47.00
12901;DHT22;6518;50.930;5.344;2022-08-11T00:21:48;24.60;47.10
12901;DHT22;6518;50.930;5.344;2022-08-11T00:24:16;24.50;47.20
12901;DHT22;6518;50.930;5.344;2022-08-11T00:26:47;24.50;47.30
12901;DHT22;6518;50.930;5.344;2022-08-11T00:29:17;24.50;47.40
12901;DHT22;6518;50.930;5.344;2022-08-11T00:31:47;24.40;47.40
12901;DHT22;6518;50.930;5.344;2022-08-11T00:34:19;24.40;47.50
12901;DHT22;6518;50.930;5.344;2022-08-11T00:36:49;24.40;47.50
12901;DHT22;6518;50.930;5.344;2022-08-11T00:39:18;24.30;47.60
12901;DHT22;6518;50.930;5.344;2022-08-11T00:41:58;24.30;47.70
12901;DHT22;6518;50.930;5.344;2022-08-11T00:44:35;24.30;47.80
12901;DHT22;6518;50.930;5.344;2022-08-11T00:47:16;24.30;47.90
12901;DHT22;6518;50.930;5.344;2022-08-11T00:49:57;24.20;48.00
12901;DHT22;6518;50.930;5.344;2022-08-11T00:52:58;24.20;48.00
12901;DHT22;6518;50.930;5.344;2022-08-11T00:59:32;24.10;48.10
12901;DHT22;6518;50.930;5.344;2022-08-11T01:02:15;24.10;48.20
12901;DHT22;6518;50.930;5.344;2022-08-11T01:05:07;24.10;48.30
12901;DHT22;6518;50.930;5.344;2022-08-11T01:11:18;24.00;49.10
12901;DHT22;6518;50.930;5.344;2022-08-11T01:14:11;23.90;48.60
12901;DHT22;6518;50.930;5.344;2022-08-11T01:17:04;23.80;48.70
12901;DHT22;6518;50.930;5.344;2022-08-11T01:19:55;23.80;48.80
12901;DHT22;6518;50.930;5.344;2022-08-11T01:23:05;23.80;49.00
12901;DHT22;6518;50.930;5.344;2022-08-11T01:25:55;23.70;48.90
12901;DHT22;6518;50.930;5.344;2022-08-11T01:28:53;23.70;48.90
12901;DHT22;6518;50.930;5.344;2022-08-11T01:31:42;23.70;49.10
12901;DHT22;6518;50.930;5.344;2022-08-11T01:38:00;23.70;49.20
12901;DHT22;6518;50.930;5.344;2022-08-11T01:40:52;23.70;49.30
12901;DHT22;6518;50.930;5.344;2022-08-11T01:46:43;23.70;49.20
12901;DHT22;6518;50.930;5.344;2022-08-11T01:49:20;23.70;49.30
12901;DHT22;6518;50.930;5.344;2022-08-11T01:54:52;23.70;49.40
12901;DHT22;6518;50.930;5.344;2022-08-11T01:57:30;23.70;49.30
12901;DHT22;6518;50.930;5.344;2022-08-11T02:00:06;23.70;49.40
12901;DHT22;6518;50.930;5.344;2022-08-11T02:02:40;23.70;49.40
12901;DHT22;6518;50.930;5.344;2022-08-11T02:05:49;23.60;49.40
12901;DHT22;6518;50.930;5.344;2022-08-11T02:08:35;23.60;49.40
12901;DHT22;6518;50.930;5.344;2022-08-11T02:11:21;23.50;49.50
12901;DHT22;6518;50.930;5.344;2022-08-11T02:14:11;23.40;49.70
12901;DHT22;6518;50.930;5.344;2022-08-11T02:17:01;23.30;49.60
12901;DHT22;6518;50.930;5.344;2022-08-11T02:19:41;23.30;49.90
12901;DHT22;6518;50.930;5.344;2022-08-11T02:22:30;23.20;50.00
12901;DHT22;6518;50.930;5.344;2022-08-11T02:25:37;23.10;50.00
12901;DHT22;6518;50.930;5.344;2022-08-11T02:28:23;23.00;50.90
12901;DHT22;6518;50.930;5.344;2022-08-11T02:31:01;23.00;50.50
12901;DHT22;6518;50.930;5.344;2022-08-11T02:33:47;22.90;50.60
12901;DHT22;6518;50.930;5.344;2022-08-11T02:36:20;22.90;50.70
12901;DHT22;6518;50.930;5.344;2022-08-11T02:38:52;22.90;50.90
12901;DHT22;6518;50.930;5.344;2022-08-11T02:41:23;22.80;50.90
12901;DHT22;6518;50.930;5.344;2022-08-11T02:44:27;22.80;51.00
12901;DHT22;6518;50.930;5.344;2022-08-11T02:47:05;22.80;51.20
12901;DHT22;6518;50.930;5.344;2022-08-11T02:49:43;22.70;51.20
12901;DHT22;6518;50.930;5.344;2022-08-11T02:52:24;22.70;51.40
12901;DHT22;6518;50.930;5.344;2022-08-11T02:54:58;22.70;51.40
12901;DHT22;6518;50.930;5.344;2022-08-11T02:57:34;22.60;51.30
12901;DHT22;6518;50.930;5.344;2022-08-11T03:00:08;22.60;51.50
12901;DHT22;6518;50.930;5.344;2022-08-11T03:03:14;22.60;51.60
12901;DHT22;6518;50.930;5.344;2022-08-11T03:05:59;22.50;51.60
12901;DHT22;6518;50.930;5.344;2022-08-11T03:08:46;22.50;51.60
12901;DHT22;6518;50.930;5.344;2022-08-11T03:11:24;22.50;51.70
12901;DHT22;6518;50.930;5.344;2022-08-11T03:14:18;22.50;51.80
12901;DHT22;6518;50.930;5.344;2022-08-11T03:17:19;22.40;51.70
12901;DHT22;6518;50.930;5.344;2022-08-11T03:19:56;22.40;52.00
12901;DHT22;6518;50.930;5.344;2022-08-11T03:22:31;22.30;52.00
12901;DHT22;6518;50.930;5.344;2022-08-11T03:25:07;22.30;52.10
12901;DHT22;6518;50.930;5.344;2022-08-11T03:27:49;22.40;52.80
12901;DHT22;6518;50.930;5.344;2022-08-11T03:30:22;22.30;52.30
12901;DHT22;6518;50.930;5.344;2022-08-11T03:33:00;22.20;52.30
12901;DHT22;6518;50.930;5.344;2022-08-11T03:35:59;22.20;52.90
12901;DHT22;6518;50.930;5.344;2022-08-11T03:38:35;22.20;52.40
12901;DHT22;6518;50.930;5.344;2022-08-11T03:41:15;22.20;52.50
12901;DHT22;6518;50.930;5.344;2022-08-11T03:44:09;22.10;52.50
12901;DHT22;6518;50.930;5.344;2022-08-11T03:46:59;22.10;52.50
12901;DHT22;6518;50.930;5.344;2022-08-11T03:49:42;22.10;52.50
12901;DHT22;6518;50.930;5.344;2022-08-11T03:52:15;22.10;52.60
12901;DHT22;6518;50.930;5.344;2022-08-11T03:54:53;22.10;52.50
12901;DHT22;6518;50.930;5.344;2022-08-11T04:00:56;22.00;52.70
12901;DHT22;6518;50.930;5.344;2022-08-11T04:03:43;21.90;52.70
12901;DHT22;6518;50.930;5.344;2022-08-11T04:06:47;21.90;52.80
12901;DHT22;6518;50.930;5.344;2022-08-11T04:12:38;21.80;52.90
12901;DHT22;6518;50.930;5.344;2022-08-11T04:15:44;21.80;53.00
12901;DHT22;6518;50.930;5.344;2022-08-11T04:25:06;21.80;53.10
12901;DHT22;6518;50.930;5.344;2022-08-11T04:27:59;21.90;53.20
12901;DHT22;6518;50.930;5.344;2022-08-11T04:30:49;21.80;53.10
12901;DHT22;6518;50.930;5.344;2022-08-11T04:33:48;21.80;53.10
12901;DHT22;6518;50.930;5.344;2022-08-11T04:36:44;21.80;53.00
12901;DHT22;6518;50.930;5.344;2022-08-11T04:39:42;21.80;53.10
12901;DHT22;6518;50.930;5.344;2022-08-11T04:42:46;21.80;53.10
12901;DHT22;6518;50.930;5.344;2022-08-11T04:45:59;21.90;53.20
12901;DHT22;6518;50.930;5.344;2022-08-11T04:49:04;21.90;53.30
12901;DHT22;6518;50.930;5.344;2022-08-11T04:52:13;21.90;53.20
12901;DHT22;6518;50.930;5.344;2022-08-11T04:55:25;22.00;53.20
12901;DHT22;6518;50.930;5.344;2022-08-11T04:58:20;22.00;53.20
12901;DHT22;6518;50.930;5.344;2022-08-11T05:01:19;22.00;53.10
12901;DHT22;6518;50.930;5.344;2022-08-11T05:04:20;22.00;53.10
12901;DHT22;6518;50.930;5.344;2022-08-11T05:07:44;22.10;53.20
12901;DHT22;6518;50.930;5.344;2022-08-11T05:10:23;22.10;53.10
12901;DHT22;6518;50.930;5.344;2022-08-11T05:12:56;22.10;53.10
12901;DHT22;6518;50.930;5.344;2022-08-11T05:15:48;22.10;53.10
12901;DHT22;6518;50.930;5.344;2022-08-11T05:18:46;22.10;53.10
12901;DHT22;6518;50.930;5.344;2022-08-11T05:21:32;22.10;53.00
12901;DHT22;6518;50.930;5.344;2022-08-11T05:24:21;22.20;53.10
12901;DHT22;6518;50.930;5.344;2022-08-11T05:27:07;22.20;53.00
12901;DHT22;6518;50.930;5.344;2022-08-11T05:29:59;22.20;53.70
12901;DHT22;6518;50.930;5.344;2022-08-11T05:32:52;22.20;53.10
12901;DHT22;6518;50.930;5.344;2022-08-11T05:35:42;22.30;53.20
12901;DHT22;6518;50.930;5.344;2022-08-11T05:38:14;22.30;53.10
12901;DHT22;6518;50.930;5.344;2022-08-11T05:41:00;22.30;53.00
12901;DHT22;6518;50.930;5.344;2022-08-11T05:43:45;22.30;53.00
12901;DHT22;6518;50.930;5.344;2022-08-11T05:46:38;22.40;53.00
12901;DHT22;6518;50.930;5.344;2022-08-11T05:49:29;22.40;53.10
12901;DHT22;6518;50.930;5.344;2022-08-11T05:52:16;22.50;53.10
12901;DHT22;6518;50.930;5.344;2022-08-11T05:55:02;22.50;52.90
12901;DHT22;6518;50.930;5.344;2022-08-11T05:57:48;22.50;52.70
12901;DHT22;6518;50.930;5.344;2022-08-11T06:00:16;22.60;52.70
12901;DHT22;6518;50.930;5.344;2022-08-11T06:02:50;22.60;52.60
12901;DHT22;6518;50.930;5.344;2022-08-11T06:05:22;22.60;52.70
12901;DHT22;6518;50.930;5.344;2022-08-11T06:07:53;22.70;52.80
12901;DHT22;6518;50.930;5.344;2022-08-11T06:10:27;22.70;52.80
12901;DHT22;6518;50.930;5.344;2022-08-11T06:12:56;22.70;52.80
12901;DHT22;6518;50.930;5.344;2022-08-11T06:15:26;22.80;52.60
12901;DHT22;6518;50.930;5.344;2022-08-11T06:17:54;22.80;52.60
12901;DHT22;6518;50.930;5.344;2022-08-11T06:20:24;22.90;52.60
12901;DHT22;6518;50.930;5.344;2022-08-11T06:22:56;22.90;52.60
12901;DHT22;6518;50.930;5.344;2022-08-11T06:25:30;23.00;52.50
12901;DHT22;6518;50.930;5.344;2022-08-11T06:27:57;23.00;52.40
12901;DHT22;6518;50.930;5.344;2022-08-11T06:30:33;23.00;52.30
12901;DHT22;6518;50.930;5.344;2022-08-11T06:33:02;23.00;52.30
12901;DHT22;6518;50.930;5.344;2022-08-11T06:35:37;23.00;52.30
12901;DHT22;6518;50.930;5.344;2022-08-11T06:38:13;23.10;52.90
12901;DHT22;6518;50.930;5.344;2022-08-11T06:40:48;23.10;52.20
12901;DHT22;6518;50.930;5.344;2022-08-11T06:43:50;23.20;52.20
12901;DHT22;6518;50.930;5.344;2022-08-11T06:46:24;23.30;51.90
12901;DHT22;6518;50.930;5.344;2022-08-11T06:48:53;23.30;51.70
12901;DHT22;6518;50.930;5.344;2022-08-11T06:51:22;23.30;51.50
12901;DHT22;6518;50.930;5.344;2022-08-11T06:53:50;23.30;51.40
12901;DHT22;6518;50.930;5.344;2022-08-11T06:56:22;23.40;51.40
12901;DHT22;6518;50.930;5.344;2022-08-11T06:59:09;23.40;51.30
12901;DHT22;6518;50.930;5.344;2022-08-11T07:02:02;23.50;51.30
12901;DHT22;6518;50.930;5.344;2022-08-11T07:04:35;23.50;51.10
12901;DHT22;6518;50.930;5.344;2022-08-11T07:10:38;23.60;50.90
12901;DHT22;6518;50.930;5.344;2022-08-11T07:13:26;23.70;51.00
12901;DHT22;6518;50.930;5.344;2022-08-11T07:16:15;23.70;51.00
12901;DHT22;6518;50.930;5.344;2022-08-11T07:18:46;23.80;51.00
12901;DHT22;6518;50.930;5.344;2022-08-11T07:21:32;23.80;50.80
12901;DHT22;6518;50.930;5.344;2022-08-11T07:24:22;23.90;50.90
12901;DHT22;6518;50.930;5.344;2022-08-11T07:27:11;23.90;50.80
12901;DHT22;6518;50.930;5.344;2022-08-11T07:30:00;24.00;50.90
12901;DHT22;6518;50.930;5.344;2022-08-11T07:32:30;24.00;50.90
12901;DHT22;6518;50.930;5.344;2022-08-11T07:35:03;24.10;51.00
12901;DHT22;6518;50.930;5.344;2022-08-11T07:37:33;24.10;51.00
12901;DHT22;6518;50.930;5.344;2022-08-11T07:40:03;24.20;51.00
12901;DHT22;6518;50.930;5.344;2022-08-11T07:42:31;24.30;51.00
12901;DHT22;6518;50.930;5.344;2022-08-11T07:45:04;24.40;50.90
12901;DHT22;6518;50.930;5.344;2022-08-11T07:47:51;24.40;50.80
12901;DHT22;6518;50.930;5.344;2022-08-11T07:50:48;24.50;50.70
12901;DHT22;6518;50.930;5.344;2022-08-11T07:53:33;24.50;50.70
12901;DHT22;6518;50.930;5.344;2022-08-11T07:56:04;24.60;50.50
12901;DHT22;6518;50.930;5.344;2022-08-11T07:58:34;24.70;50.10
12901;DHT22;6518;50.930;5.344;2022-08-11T08:01:22;24.70;49.80
12901;DHT22;6518;50.930;5.344;2022-08-11T08:04:09;24.80;49.40
12901;DHT22;6518;50.930;5.344;2022-08-11T08:06:55;24.90;48.90
12901;DHT22;6518;50.930;5.344;2022-08-11T08:09:41;25.00;48.50
12901;DHT22;6518;50.930;5.344;2022-08-11T08:12:28;25.10;48.30
12901;DHT22;6518;50.930;5.344;2022-08-11T08:15:15;25.20;48.00
12901;DHT22;6518;50.930;5.344;2022-08-11T08:18:02;25.20;47.70
12901;DHT22;6518;50.930;5.344;2022-08-11T08:20:33;25.20;47.60
12901;DHT22;6518;50.930;5.344;2022-08-11T08:23:01;25.30;47.40
12901;DHT22;6518;50.930;5.344;2022-08-11T08:25:30;25.30;47.30
12901;DHT22;6518;50.930;5.344;2022-08-11T08:28:01;25.40;47.30
12901;DHT22;6518;50.930;5.344;2022-08-11T08:30:29;25.40;46.90
12901;DHT22;6518;50.930;5.344;2022-08-11T08:33:18;25.40;47.00
12901;DHT22;6518;50.930;5.344;2022-08-11T08:35:48;25.50;46.80
12901;DHT22;6518;50.930;5.344;2022-08-11T08:38:16;25.50;46.60
12901;DHT22;6518;50.930;5.344;2022-08-11T08:40:44;25.60;46.50
12901;DHT22;6518;50.930;5.344;2022-08-11T08:43:16;25.70;46.30
12901;DHT22;6518;50.930;5.344;2022-08-11T08:45:43;25.70;46.30
12901;DHT22;6518;50.930;5.344;2022-08-11T08:48:13;25.80;46.90
12901;DHT22;6518;50.930;5.344;2022-08-11T08:50:48;25.90;46.10
12901;DHT22;6518;50.930;5.344;2022-08-11T08:53:38;25.90;46.00
12901;DHT22;6518;50.930;5.344;2022-08-11T08:56:06;26.00;46.00
12901;DHT22;6518;50.930;5.344;2022-08-11T08:58:40;26.00;45.90
12901;DHT22;6518;50.930;5.344;2022-08-11T09:01:09;26.10;45.90
12901;DHT22;6518;50.930;5.344;2022-08-11T09:03:37;26.10;45.80
12901;DHT22;6518;50.930;5.344;2022-08-11T09:06:06;26.10;45.70
12901;DHT22;6518;50.930;5.344;2022-08-11T09:08:34;26.20;45.60
12901;DHT22;6518;50.930;5.344;2022-08-11T09:11:02;26.30;45.40
12901;DHT22;6518;50.930;5.344;2022-08-11T09:13:48;26.30;45.10
12901;DHT22;6518;50.930;5.344;2022-08-11T09:16:16;26.40;45.00
12901;DHT22;6518;50.930;5.344;2022-08-11T09:18:43;26.40;44.90
12901;DHT22;6518;50.930;5.344;2022-08-11T09:21:12;26.40;44.80
12901;DHT22;6518;50.930;5.344;2022-08-11T09:23:41;26.50;45.10
12901;DHT22;6518;50.930;5.344;2022-08-11T09:26:27;26.50;44.30
12901;DHT22;6518;50.930;5.344;2022-08-11T09:29:13;26.60;44.40
12901;DHT22;6518;50.930;5.344;2022-08-11T09:31:40;26.70;44.40
12901;DHT22;6518;50.930;5.344;2022-08-11T09:34:09;26.70;44.30
12901;DHT22;6518;50.930;5.344;2022-08-11T09:36:38;26.80;44.20
12901;DHT22;6518;50.930;5.344;2022-08-11T09:39:24;26.80;43.90
12901;DHT22;6518;50.930;5.344;2022-08-11T09:42:10;26.80;43.80
12901;DHT22;6518;50.930;5.344;2022-08-11T09:44:40;26.90;43.80
12901;DHT22;6518;50.930;5.344;2022-08-11T09:47:20;26.90;43.70
12901;DHT22;6518;50.930;5.344;2022-08-11T09:49:49;27.00;43.60
12901;DHT22;6518;50.930;5.344;2022-08-11T09:52:18;27.10;43.30
12901;DHT22;6518;50.930;5.344;2022-08-11T09:54:47;27.10;43.10
12901;DHT22;6518;50.930;5.344;2022-08-11T09:57:17;27.10;43.10
12901;DHT22;6518;50.930;5.344;2022-08-11T10:00:06;27.20;42.90
12901;DHT22;6518;50.930;5.344;2022-08-11T10:02:41;27.20;42.50
12901;DHT22;6518;50.930;5.344;2022-08-11T10:05:09;27.30;42.00
12901;DHT22;6518;50.930;5.344;2022-08-11T10:07:55;27.40;41.80
12901;DHT22;6518;50.930;5.344;2022-08-11T10:10:23;27.50;41.60
12901;DHT22;6518;50.930;5.344;2022-08-11T10:12:57;27.50;41.30
12901;DHT22;6518;50.930;5.344;2022-08-11T10:15:29;27.50;40.90
12901;DHT22;6518;50.930;5.344;2022-08-11T10:18:03;27.60;41.10
12901;DHT22;6518;50.930;5.344;2022-08-11T10:20:50;27.60;41.00
12901;DHT22;6518;50.930;5.344;2022-08-11T10:23:19;27.60;41.00
12901;DHT22;6518;50.930;5.344;2022-08-11T10:26:04;27.70;40.80
12901;DHT22;6518;50.930;5.344;2022-08-11T10:28:50;27.80;40.80
12901;DHT22;6518;50.930;5.344;2022-08-11T10:31:20;27.80;40.90
12901;DHT22;6518;50.930;5.344;2022-08-11T10:34:06;27.90;40.50
12901;DHT22;6518;50.930;5.344;2022-08-11T10:36:36;28.00;40.30
12901;DHT22;6518;50.930;5.344;2022-08-11T10:39:09;28.00;40.10
12901;DHT22;6518;50.930;5.344;2022-08-11T10:41:37;28.10;40.60
12901;DHT22;6518;50.930;5.344;2022-08-11T10:44:23;28.10;39.40
12901;DHT22;6518;50.930;5.344;2022-08-11T10:46:51;28.10;39.20
12901;DHT22;6518;50.930;5.344;2022-08-11T10:49:51;28.10;38.90
12901;DHT22;6518;50.930;5.344;2022-08-11T10:52:52;28.20;38.90
12901;DHT22;6518;50.930;5.344;2022-08-11T10:55:37;28.20;38.20
12901;DHT22;6518;50.930;5.344;2022-08-11T10:58:23;28.30;38.10
12901;DHT22;6518;50.930;5.344;2022-08-11T11:01:07;28.30;38.30
12901;DHT22;6518;50.930;5.344;2022-08-11T11:03:36;28.40;38.50
12901;DHT22;6518;50.930;5.344;2022-08-11T11:06:07;28.40;38.40
12901;DHT22;6518;50.930;5.344;2022-08-11T11:08:38;28.50;38.40
12901;DHT22;6518;50.930;5.344;2022-08-11T11:11:20;28.60;38.50
12901;DHT22;6518;50.930;5.344;2022-08-11T11:13:50;28.60;38.30
12901;DHT22;6518;50.930;5.344;2022-08-11T11:16:36;28.70;37.90
12901;DHT22;6518;50.930;5.344;2022-08-11T11:19:24;28.70;38.00
12901;DHT22;6518;50.930;5.344;2022-08-11T11:21:54;28.70;38.10
12901;DHT22;6518;50.930;5.344;2022-08-11T11:24:53;28.70;38.20
12901;DHT22;6518;50.930;5.344;2022-08-11T11:27:30;28.80;38.00
12901;DHT22;6518;50.930;5.344;2022-08-11T11:30:03;28.90;37.70
12901;DHT22;6518;50.930;5.344;2022-08-11T11:32:40;29.00;37.70
12901;DHT22;6518;50.930;5.344;2022-08-11T11:35:19;29.10;37.40
12901;DHT22;6518;50.930;5.344;2022-08-11T11:37:54;29.10;37.20
12901;DHT22;6518;50.930;5.344;2022-08-11T11:40:23;29.10;37.30
12901;DHT22;6518;50.930;5.344;2022-08-11T11:42:53;29.20;37.40
12901;DHT22;6518;50.930;5.344;2022-08-11T11:45:23;29.30;37.50
12901;DHT22;6518;50.930;5.344;2022-08-11T11:47:52;29.30;37.30
12901;DHT22;6518;50.930;5.344;2022-08-11T11:50:26;29.40;37.40
12901;DHT22;6518;50.930;5.344;2022-08-11T11:52:54;29.50;37.20
12901;DHT22;6518;50.930;5.344;2022-08-11T11:55:23;29.50;37.20
12901;DHT22;6518;50.930;5.344;2022-08-11T11:57:51;29.50;36.90
12901;DHT22;6518;50.930;5.344;2022-08-11T12:00:37;29.60;36.70
12901;DHT22;6518;50.930;5.344;2022-08-11T12:03:23;29.60;36.60
12901;DHT22;6518;50.930;5.344;2022-08-11T12:05:52;29.60;36.40
12901;DHT22;6518;50.930;5.344;2022-08-11T12:08:20;29.70;36.40
12901;DHT22;6518;50.930;5.344;2022-08-11T12:10:50;29.70;36.30
12901;DHT22;6518;50.930;5.344;2022-08-11T12:13:38;29.70;36.20
12901;DHT22;6518;50.930;5.344;2022-08-11T12:16:07;29.70;36.20
12901;DHT22;6518;50.930;5.344;2022-08-11T12:18:35;29.70;36.20
12901;DHT22;6518;50.930;5.344;2022-08-11T12:21:04;29.70;36.00
12901;DHT22;6518;50.930;5.344;2022-08-11T12:23:33;29.80;36.00
12901;DHT22;6518;50.930;5.344;2022-08-11T12:26:18;29.70;36.00
12901;DHT22;6518;50.930;5.344;2022-08-11T12:29:04;29.70;36.00
12901;DHT22;6518;50.930;5.344;2022-08-11T12:31:32;29.80;35.70
12901;DHT22;6518;50.930;5.344;2022-08-11T12:34:01;29.70;35.60
12901;DHT22;6518;50.930;5.344;2022-08-11T12:36:33;29.80;36.30
12901;DHT22;6518;50.930;5.344;2022-08-11T12:39:02;29.90;35.50
12901;DHT22;6518;50.930;5.344;2022-08-11T12:41:32;29.90;35.30
12901;DHT22;6518;50.930;5.344;2022-08-11T12:44:18;30.00;35.00
12901;DHT22;6518;50.930;5.344;2022-08-11T12:47:04;30.10;34.90
12901;DHT22;6518;50.930;5.344;2022-08-11T12:49:35;30.10;34.70
12901;DHT22;6518;50.930;5.344;2022-08-11T12:52:24;30.20;34.50
12901;DHT22;6518;50.930;5.344;2022-08-11T12:54:57;30.20;34.40
12901;DHT22;6518;50.930;5.344;2022-08-11T12:57:29;30.20;34.20
12901;DHT22;6518;50.930;5.344;2022-08-11T13:00:15;30.30;34.10
12901;DHT22;6518;50.930;5.344;2022-08-11T13:03:00;30.30;34.10
12901;DHT22;6518;50.930;5.344;2022-08-11T13:05:46;30.30;34.00
12901;DHT22;6518;50.930;5.344;2022-08-11T13:08:15;30.40;33.50
12901;DHT22;6518;50.930;5.344;2022-08-11T13:10:43;30.40;34.20
12901;DHT22;6518;50.930;5.344;2022-08-11T13:13:28;30.40;33.20
12901;DHT22;6518;50.930;5.344;2022-08-11T13:15:56;30.40;33.10
12901;DHT22;6518;50.930;5.344;2022-08-11T13:18:24;30.40;32.90
12901;DHT22;6518;50.930;5.344;2022-08-11T13:20:52;30.40;32.70
12901;DHT22;6518;50.930;5.344;2022-08-11T13:23:23;30.40;32.50
12901;DHT22;6518;50.930;5.344;2022-08-11T13:25:51;30.50;32.30
12901;DHT22;6518;50.930;5.344;2022-08-11T13:28:20;30.40;32.40
12901;DHT22;6518;50.930;5.344;2022-08-11T13:30:49;30.40;32.50
12901;DHT22;6518;50.930;5.344;2022-08-11T13:33:34;30.50;32.20
12901;DHT22;6518;50.930;5.344;2022-08-11T13:36:02;30.50;32.30
12901;DHT22;6518;50.930;5.344;2022-08-11T13:38:32;30.50;32.10
12901;DHT22;6518;50.930;5.344;2022-08-11T13:40:59;30.50;32.10
12901;DHT22;6518;50.930;5.344;2022-08-11T13:43:27;30.50;32.20
12901;DHT22;6518;50.930;5.344;2022-08-11T13:45:54;30.60;32.30
12901;DHT22;6518;50.930;5.344;2022-08-11T13:48:42;30.60;32.10
12901;DHT22;6518;50.930;5.344;2022-08-11T13:51:09;30.60;32.30
12901;DHT22;6518;50.930;5.344;2022-08-11T13:53:57;30.60;32.20
12901;DHT22;6518;50.930;5.344;2022-08-11T13:56:25;30.70;32.70
12901;DHT22;6518;50.930;5.344;2022-08-11T13:58:53;30.70;32.10
12901;DHT22;6518;50.930;5.344;2022-08-11T14:01:24;30.70;32.10
12901;DHT22;6518;50.930;5.344;2022-08-11T14:03:52;30.70;32.20
12901;DHT22;6518;50.930;5.344;2022-08-11T14:06:21;30.70;32.30
12901;DHT22;6518;50.930;5.344;2022-08-11T14:08:49;30.70;32.30
12901;DHT22;6518;50.930;5.344;2022-08-11T14:11:20;30.70;32.30
12901;DHT22;6518;50.930;5.344;2022-08-11T14:14:06;30.80;32.50
12901;DHT22;6518;50.930;5.344;2022-08-11T14:16:41;30.80;32.50
12901;DHT22;6518;50.930;5.344;2022-08-11T14:19:12;30.90;32.50
12901;DHT22;6518;50.930;5.344;2022-08-11T14:21:41;30.90;32.50
12901;DHT22;6518;50.930;5.344;2022-08-11T14:24:27;30.80;32.60
12901;DHT22;6518;50.930;5.344;2022-08-11T14:26:56;30.80;32.70
12901;DHT22;6518;50.930;5.344;2022-08-11T14:29:26;30.80;32.70
12901;DHT22;6518;50.930;5.344;2022-08-11T14:31:55;30.90;32.80
12901;DHT22;6518;50.930;5.344;2022-08-11T14:34:23;30.90;32.60
12901;DHT22;6518;50.930;5.344;2022-08-11T14:36:54;31.00;33.10
12901;DHT22;6518;50.930;5.344;2022-08-11T14:39:23;31.00;32.30
12901;DHT22;6518;50.930;5.344;2022-08-11T14:41:53;31.00;32.30
12901;DHT22;6518;50.930;5.344;2022-08-11T14:44:42;31.00;32.30
12901;DHT22;6518;50.930;5.344;2022-08-11T14:47:29;31.00;32.40
12901;DHT22;6518;50.930;5.344;2022-08-11T14:49:58;31.00;32.50
12901;DHT22;6518;50.930;5.344;2022-08-11T14:52:27;31.10;32.60
12901;DHT22;6518;50.930;5.344;2022-08-11T14:54:55;31.10;32.50
12901;DHT22;6518;50.930;5.344;2022-08-11T14:57:40;31.10;32.30
12901;DHT22;6518;50.930;5.344;2022-08-11T15:00:12;31.10;32.20
12901;DHT22;6518;50.930;5.344;2022-08-11T15:02:43;31.20;32.20
12901;DHT22;6518;50.930;5.344;2022-08-11T15:05:28;31.20;32.10
12901;DHT22;6518;50.930;5.344;2022-08-11T15:07:57;31.20;31.90
12901;DHT22;6518;50.930;5.344;2022-08-11T15:10:24;31.20;31.80
12901;DHT22;6518;50.930;5.344;2022-08-11T15:12:52;31.20;31.90
12901;DHT22;6518;50.930;5.344;2022-08-11T15:15:21;31.20;31.70
12901;DHT22;6518;50.930;5.344;2022-08-11T15:18:10;31.30;31.60
12901;DHT22;6518;50.930;5.344;2022-08-11T15:20:38;31.20;31.50
12901;DHT22;6518;50.930;5.344;2022-08-11T15:23:23;31.20;31.50
12901;DHT22;6518;50.930;5.344;2022-08-11T15:26:10;31.20;31.40
12901;DHT22;6518;50.930;5.344;2022-08-11T15:28:41;31.30;31.40
12901;DHT22;6518;50.930;5.344;2022-08-11T15:31:29;31.30;31.40
12901;DHT22;6518;50.930;5.344;2022-08-11T15:34:16;31.40;31.50
12901;DHT22;6518;50.930;5.344;2022-08-11T15:37:05;31.40;31.70
12901;DHT22;6518;50.930;5.344;2022-08-11T15:39:52;31.40;31.70
12901;DHT22;6518;50.930;5.344;2022-08-11T15:42:46;31.40;31.70
12901;DHT22;6518;50.930;5.344;2022-08-11T15:45:36;31.50;31.90
12901;DHT22;6518;50.930;5.344;2022-08-11T15:48:18;31.50;31.90
12901;DHT22;6518;50.930;5.344;2022-08-11T15:50:51;31.40;31.80
12901;DHT22;6518;50.930;5.344;2022-08-11T15:53:26;31.50;31.90
12901;DHT22;6518;50.930;5.344;2022-08-11T15:55:53;31.40;31.90
12901;DHT22;6518;50.930;5.344;2022-08-11T15:58:22;31.40;31.90
12901;DHT22;6518;50.930;5.344;2022-08-11T16:01:09;31.40;31.80
12901;DHT22;6518;50.930;5.344;2022-08-11T16:04:00;31.40;32.00
12901;DHT22;6518;50.930;5.344;2022-08-11T16:06:39;31.40;32.10
12901;DHT22;6518;50.930;5.344;2022-08-11T16:09:09;31.50;32.10
12901;DHT22;6518;50.930;5.344;2022-08-11T16:11:38;31.50;32.10
12901;DHT22;6518;50.930;5.344;2022-08-11T16:14:05;31.50;32.10
12901;DHT22;6518;50.930;5.344;2022-08-11T16:16:52;31.50;32.00
12901;DHT22;6518;50.930;5.344;2022-08-11T16:19:21;31.40;32.00
12901;DHT22;6518;50.930;5.344;2022-08-11T16:21:51;31.40;32.10
12901;DHT22;6518;50.930;5.344;2022-08-11T16:24:19;31.50;32.30
12901;DHT22;6518;50.930;5.344;2022-08-11T16:26:49;31.50;32.20
12901;DHT22;6518;50.930;5.344;2022-08-11T16:29:20;31.50;32.30
12901;DHT22;6518;50.930;5.344;2022-08-11T16:31:50;31.50;32.40
12901;DHT22;6518;50.930;5.344;2022-08-11T16:34:34;31.50;32.40
12901;DHT22;6518;50.930;5.344;2022-08-11T16:37:22;31.50;32.50
12901;DHT22;6518;50.930;5.344;2022-08-11T16:40:08;31.50;32.60
12901;DHT22;6518;50.930;5.344;2022-08-11T16:42:37;31.60;32.70
12901;DHT22;6518;50.930;5.344;2022-08-11T16:45:22;31.60;32.80
12901;DHT22;6518;50.930;5.344;2022-08-11T16:48:07;31.60;32.70
12901;DHT22;6518;50.930;5.344;2022-08-11T16:50:36;31.60;32.90
12901;DHT22;6518;50.930;5.344;2022-08-11T16:53:05;31.60;32.90
12901;DHT22;6518;50.930;5.344;2022-08-11T16:55:32;31.60;32.90
12901;DHT22;6518;50.930;5.344;2022-08-11T16:58:00;31.60;33.50
12901;DHT22;6518;50.930;5.344;2022-08-11T17:00:47;31.60;32.70
12901;DHT22;6518;50.930;5.344;2022-08-11T17:03:16;31.60;32.90
12901;DHT22;6518;50.930;5.344;2022-08-11T17:06:04;31.60;32.80
12901;DHT22;6518;50.930;5.344;2022-08-11T17:08:51;31.60;33.00
12901;DHT22;6518;50.930;5.344;2022-08-11T17:11:39;31.60;32.80
12901;DHT22;6518;50.930;5.344;2022-08-11T17:14:27;31.60;32.90
12901;DHT22;6518;50.930;5.344;2022-08-11T17:17:00;31.60;33.00
12901;DHT22;6518;50.930;5.344;2022-08-11T17:19:30;31.60;33.10
12901;DHT22;6518;50.930;5.344;2022-08-11T17:22:00;31.60;33.20
12901;DHT22;6518;50.930;5.344;2022-08-11T17:24:46;31.70;33.40
12901;DHT22;6518;50.930;5.344;2022-08-11T17:27:17;31.60;33.30
12901;DHT22;6518;50.930;5.344;2022-08-11T17:29:48;31.70;33.50
12901;DHT22;6518;50.930;5.344;2022-08-11T17:32:18;31.70;33.60